Terminal Aerodrome Forecast
Issued by NWS

Home | Current Version | Previous Version | Text Only | Print | Product List | Glossary On
Versions: 1 2 3 4 5 6 7 8 9 10 11 12 13 14 15
000
FTUS46 KMTR 042341
TAFMRY
TAF
KMRY 042341Z 0500/0524 22012G18KT P6SM FEW020 BKN150
     FM050200 23008KT P6SM FEW015 BKN025 OVC150
     FM050400 22004KT P6SM BKN015 OVC020
     FM050600 VRB02KT P6SM OVC012
     FM051500 VRB03KT P6SM SCT012 BKN025
     FM051800 26004KT P6SM SCT025 BKN100
     FM052100 25008KT P6SM VCSH SCT030 BKN100=

USA.gov is the U.S. government's official web portal to all federal, state and local government web resources and services.